createdAt,value
2018-05-15T00:00:07.763Z,98
2018-05-15T00:00:48.286Z,98
2018-05-15T00:01:28.813Z,97.71
2018-05-15T00:02:09.323Z,97.56
2018-05-15T00:02:49.859Z,97.91
2018-05-15T00:03:30.390Z,97.61
2018-05-15T00:04:10.917Z,97.81
2018-05-15T00:04:51.434Z,97.66
2018-05-15T00:05:31.961Z,97.66
2018-05-15T00:06:12.493Z,97.86
2018-05-15T00:06:53.004Z,97.91
2018-05-15T00:07:33.533Z,98.24
2018-05-15T00:08:14.064Z,98.48
2018-05-15T00:08:54.580Z,98.14
2018-05-15T00:09:35.148Z,98.14
2018-05-15T00:10:15.642Z,98.53
2018-05-15T00:10:56.171Z,98.29
2018-05-15T00:11:36.682Z,97.91
2018-05-15T00:12:17.209Z,97.71
2018-05-15T00:12:57.739Z,97.61
2018-05-15T00:13:38.255Z,97.61
2018-05-15T00:14:18.774Z,97.61
2018-05-15T00:14:59.292Z,97.42
2018-05-15T00:15:39.803Z,97.61
2018-05-15T00:16:20.339Z,98
2018-05-15T00:17:00.866Z,97.71
2018-05-15T00:17:41.375Z,96.75
2018-05-15T00:18:21.898Z,97.42
2018-05-15T00:19:02.426Z,97.52
2018-05-15T00:19:42.950Z,97.14
2018-05-15T00:20:23.482Z,97.24
2018-05-15T00:21:03.998Z,97.33
2018-05-15T00:21:44.516Z,97.42
2018-05-15T00:22:25.035Z,97.14
2018-05-15T00:23:05.583Z,97.24
2018-05-15T00:23:46.095Z,97.52
2018-05-15T00:24:26.632Z,97.71
2018-05-15T00:25:07.156Z,97.52
2018-05-15T00:25:47.677Z,97.33
2018-05-15T00:26:28.193Z,97.14
2018-05-15T00:27:08.716Z,97.24
2018-05-15T00:27:49.244Z,97.61
2018-05-15T00:28:29.782Z,97.91
2018-05-15T00:29:10.283Z,98.29
2018-05-15T00:29:50.803Z,98.1
2018-05-15T00:30:31.316Z,98.1
2018-05-15T00:31:11.833Z,98.48
2018-05-15T00:31:52.393Z,97.81
2018-05-15T00:32:32.962Z,97.61
2018-05-15T00:33:13.409Z,97.91
2018-05-15T00:33:53.929Z,96.94
2018-05-15T00:34:34.464Z,97.42
2018-05-15T00:35:14.981Z,98
2018-05-15T00:35:55.497Z,98
2018-05-15T00:36:36.037Z,97.81
2018-05-15T00:37:16.566Z,97.91
2018-05-15T00:37:57.101Z,97.91
2018-05-15T00:38:37.602Z,97.52
2018-05-15T00:39:18.131Z,98
2018-05-15T00:39:58.650Z,97.14
2018-05-15T00:40:39.160Z,97.24
2018-05-15T00:41:19.686Z,98.1
2018-05-15T00:42:00.234Z,97.61
2018-05-15T00:42:40.761Z,98
2018-05-15T00:43:21.283Z,97.61
2018-05-15T00:44:01.785Z,97.71
2018-05-15T00:44:42.346Z,97.71
2018-05-15T00:45:22.881Z,97.42
2018-05-15T00:46:03.413Z,97.52
2018-05-15T00:46:43.928Z,97.66
2018-05-15T00:47:24.439Z,98.29
2018-05-15T00:48:04.965Z,98.05
2018-05-15T00:48:45.503Z,97.86
2018-05-15T00:49:26.025Z,98.33
2018-05-15T00:50:06.547Z,98.53
2018-05-15T00:50:47.062Z,97.91
2018-05-15T00:51:27.591Z,97.91
2018-05-15T00:52:08.114Z,97.91
2018-05-15T00:52:48.632Z,97.91
2018-05-15T00:53:29.152Z,97.91
2018-05-15T00:54:09.675Z,97.61
2018-05-15T00:54:50.196Z,97.91
2018-05-15T00:55:30.726Z,97.61
2018-05-15T00:56:11.247Z,97.91
2018-05-15T00:56:51.769Z,97.91
2018-05-15T00:57:32.290Z,98.1
2018-05-15T00:58:12.798Z,98
2018-05-15T00:58:53.344Z,97.81
2018-05-15T00:59:33.849Z,97.71
2018-05-15T01:00:14.377Z,97.61
2018-05-15T01:00:54.907Z,97.61
2018-05-15T01:01:35.446Z,97.81
2018-05-15T01:02:15.951Z,97.91
2018-05-15T01:02:56.489Z,97.81
2018-05-15T01:03:37.008Z,98
2018-05-15T01:04:17.530Z,97.81
2018-05-15T01:04:58.056Z,97.91
2018-05-15T01:05:38.587Z,97.91
2018-05-15T01:06:19.119Z,98
2018-05-15T01:06:59.637Z,97.91
2018-05-15T01:07:40.162Z,97.91
2018-05-15T01:08:20.684Z,98
2018-05-15T01:09:01.207Z,97.71
2018-05-15T01:09:41.721Z,97.91
2018-05-15T01:10:22.243Z,97.91
2018-05-15T01:11:02.767Z,97.33
2018-05-15T01:11:43.287Z,97.24
2018-05-15T01:12:23.802Z,97.24
2018-05-15T01:13:04.326Z,97.24
2018-05-15T01:13:44.850Z,97.24
2018-05-15T01:14:25.366Z,97.14
2018-05-15T01:15:05.892Z,97.38
2018-05-15T01:15:46.405Z,97.19
2018-05-15T01:16:26.920Z,96.94
2018-05-15T01:17:07.439Z,96.89
2018-05-15T01:17:47.972Z,97.28
2018-05-15T01:18:28.493Z,97.66
2018-05-15T01:19:09.020Z,97.76
2018-05-15T01:19:49.539Z,98.33
2018-05-15T01:20:30.057Z,98.62
2018-05-15T01:21:10.569Z,98.43
2018-05-15T01:21:51.089Z,98.1
2018-05-15T01:22:31.613Z,97.81
2018-05-15T01:23:12.131Z,97.71
2018-05-15T01:23:52.659Z,97.91
2018-05-15T01:24:33.172Z,97.33
2018-05-15T01:25:13.677Z,96.7
2018-05-15T01:25:54.201Z,97.28
2018-05-15T01:26:34.701Z,96.89
2018-05-15T01:27:15.218Z,97.66
2018-05-15T01:27:55.745Z,97.86
2018-05-15T01:28:36.268Z,97.66
2018-05-15T01:29:16.769Z,98.43
2018-05-15T01:29:57.300Z,97.95
2018-05-15T01:30:37.814Z,98.29
2018-05-15T01:31:18.314Z,97.91
2018-05-15T01:31:58.848Z,97.61
2018-05-15T01:32:39.364Z,97.81
2018-05-15T01:33:19.871Z,97.76
2018-05-15T01:34:00.401Z,97.52
2018-05-15T01:34:40.927Z,97.61
2018-05-15T01:35:21.444Z,97.14
2018-05-15T01:36:01.958Z,97.14
2018-05-15T01:36:42.469Z,98.05
2018-05-15T01:37:22.989Z,97.33
2018-05-15T01:38:03.505Z,97.33
2018-05-15T01:38:44.017Z,97.38
2018-05-15T01:39:24.540Z,97.52
2018-05-15T01:40:05.045Z,97.66
2018-05-15T01:40:45.573Z,97.61
2018-05-15T01:41:26.100Z,98
2018-05-15T01:42:06.619Z,97.91
2018-05-15T01:42:47.127Z,97.14
2018-05-15T01:43:27.664Z,97.61
2018-05-15T01:44:08.178Z,97.42
2018-05-15T01:44:48.706Z,96.75
2018-05-15T01:45:29.227Z,96.85
2018-05-15T01:46:09.752Z,96.75
2018-05-15T01:46:50.270Z,97.52
2018-05-15T01:47:30.791Z,97.66
2018-05-15T01:48:11.317Z,97.71
2018-05-15T01:48:51.829Z,97.71
2018-05-15T01:49:32.336Z,97.42
2018-05-15T01:50:12.863Z,97.14
2018-05-15T01:50:53.381Z,97.24
2018-05-15T01:51:33.916Z,97.24
2018-05-15T01:52:14.440Z,97.42
2018-05-15T01:52:54.964Z,97.42
2018-05-15T01:53:35.487Z,97.33
2018-05-15T01:54:16.000Z,96.56
2018-05-15T01:54:56.523Z,96.89
2018-05-15T01:55:37.042Z,97.52
2018-05-15T01:56:17.565Z,97.66
2018-05-15T01:56:58.090Z,98
2018-05-15T01:57:38.602Z,97.38
2018-05-15T01:58:19.124Z,97.47
2018-05-15T01:58:59.639Z,97.66
2018-05-15T01:59:40.162Z,97.71
2018-05-15T02:00:20.670Z,97.56
2018-05-15T02:01:01.195Z,97.86
2018-05-15T02:01:41.714Z,97.91
2018-05-15T02:02:22.229Z,97.42
2018-05-15T02:03:02.756Z,97.71
2018-05-15T02:03:43.279Z,97.86
2018-05-15T02:04:23.798Z,97.71
2018-05-15T02:05:04.325Z,97.61
2018-05-15T02:05:44.840Z,98
2018-05-15T02:06:25.365Z,97.61
2018-05-15T02:07:05.891Z,97.71
2018-05-15T02:07:46.420Z,97.91
2018-05-15T02:08:26.943Z,97.71
2018-05-15T02:09:07.462Z,98.1
2018-05-15T02:09:48.006Z,97.91
2018-05-15T02:10:28.517Z,97.91
2018-05-15T02:11:09.031Z,97.81
2018-05-15T02:11:49.543Z,97.81
2018-05-15T02:12:30.056Z,97.91
2018-05-15T02:13:10.563Z,97.61
2018-05-15T02:13:51.095Z,97.71
2018-05-15T02:14:31.603Z,97.91
2018-05-15T02:15:12.141Z,97.71
2018-05-15T02:15:52.653Z,97.91
2018-05-15T02:16:33.171Z,97.81
2018-05-15T02:17:13.703Z,97.91
2018-05-15T02:17:54.225Z,97.81
2018-05-15T02:18:34.734Z,98
2018-05-15T02:19:15.252Z,97.61
2018-05-15T02:19:55.762Z,97.81
2018-05-15T02:20:36.297Z,97.61
2018-05-15T02:21:16.813Z,97.61
2018-05-15T02:21:57.334Z,97.52
2018-05-15T02:22:37.855Z,97.71
2018-05-15T02:23:18.373Z,97.42
2018-05-15T02:23:58.890Z,97.61
2018-05-15T02:24:39.419Z,97.81
2018-05-15T02:25:19.924Z,97.33
2018-05-15T02:26:00.440Z,96.75
2018-05-15T02:26:40.958Z,97.14
2018-05-15T02:27:21.473Z,97.52
2018-05-15T02:28:01.996Z,97.24
2018-05-15T02:28:42.513Z,97.71
2018-05-15T02:29:23.035Z,97.91
2018-05-15T02:30:03.564Z,97.61
2018-05-15T02:30:44.102Z,97.14
2018-05-15T02:31:24.614Z,96.94
2018-05-15T02:32:05.146Z,97.33
2018-05-15T02:32:45.663Z,97.52
2018-05-15T02:33:26.180Z,97.71
2018-05-15T02:34:06.703Z,97.61
2018-05-15T02:34:47.216Z,97.81
2018-05-15T02:35:27.728Z,97.24
2018-05-15T02:36:08.254Z,97.61
2018-05-15T02:36:48.773Z,97.81
2018-05-15T02:37:29.285Z,97.33
2018-05-15T02:38:09.800Z,97.14
2018-05-15T02:38:50.323Z,97.04
2018-05-15T02:39:30.827Z,97.14
2018-05-15T02:40:11.340Z,97.33
2018-05-15T02:40:51.859Z,96.94
2018-05-15T02:41:32.409Z,97.52
2018-05-15T02:42:12.915Z,97.42
2018-05-15T02:42:53.428Z,97.24
2018-05-15T02:43:33.950Z,96.75
2018-05-15T02:44:14.473Z,97.24
2018-05-15T02:44:54.994Z,97.33
2018-05-15T02:45:35.507Z,97.04
2018-05-15T02:46:16.029Z,97.24
2018-05-15T02:46:56.545Z,96.75
2018-05-15T02:47:37.073Z,97.14
2018-05-15T02:48:17.590Z,97.14
2018-05-15T02:48:58.103Z,96.56
2018-05-15T02:49:38.630Z,96.66
2018-05-15T02:50:19.143Z,96.75
2018-05-15T02:50:59.677Z,96.94
2018-05-15T02:51:40.198Z,96.94
2018-05-15T02:52:20.718Z,96.85
2018-05-15T02:53:01.235Z,96.94
2018-05-15T02:53:41.755Z,97.42
2018-05-15T02:54:22.273Z,97.42
2018-05-15T02:55:02.797Z,98.1
2018-05-15T02:55:43.311Z,97.52
2018-05-15T02:56:23.829Z,97.52
2018-05-15T02:57:04.340Z,97.33
2018-05-15T02:57:44.861Z,98.1
2018-05-15T02:58:25.381Z,97.81
2018-05-15T02:59:05.895Z,96.75
2018-05-15T02:59:46.418Z,96.94
2018-05-15T03:00:26.945Z,97.42
2018-05-15T03:01:07.478Z,97.24
2018-05-15T03:01:47.999Z,97.42
2018-05-15T03:02:28.517Z,96.94
2018-05-15T03:03:09.047Z,97.14
2018-05-15T03:03:49.727Z,97.14
2018-05-15T03:04:30.345Z,97.24
2018-05-15T03:05:10.957Z,97.04
2018-05-15T03:05:51.936Z,97.14
2018-05-15T03:06:32.406Z,97.42
2018-05-15T03:07:12.981Z,96.94
2018-05-15T03:07:53.543Z,97.52
2018-05-15T03:08:34.280Z,97.14
2018-05-15T03:09:14.602Z,97.04
2018-05-15T03:09:55.056Z,96.94
2018-05-15T03:10:35.573Z,97.42
2018-05-15T03:11:16.058Z,97.24
2018-05-15T03:11:56.536Z,97.24
2018-05-15T03:12:37.057Z,97.42
2018-05-15T03:13:17.606Z,97.52
2018-05-15T03:13:58.120Z,97.81
2018-05-15T03:14:38.638Z,97.81
2018-05-15T03:15:19.159Z,97.42
2018-05-15T03:15:59.677Z,97.33
2018-05-15T03:16:40.193Z,97.04
2018-05-15T03:17:20.725Z,96.66
2018-05-15T03:18:01.241Z,96.85
2018-05-15T03:18:41.750Z,96.75
2018-05-15T03:19:22.279Z,96.75
2018-05-15T03:20:02.780Z,96.56
2018-05-15T03:20:43.292Z,97.24
2018-05-15T03:21:23.814Z,96.66
2018-05-15T03:22:04.330Z,96.56
2018-05-15T03:22:44.856Z,96.27
2018-05-15T03:23:25.377Z,95.6
2018-05-15T03:24:05.894Z,96.37
2018-05-15T03:24:46.420Z,96.37
2018-05-15T03:25:26.935Z,96.56
2018-05-15T03:26:07.454Z,96.56
2018-05-15T03:26:47.964Z,96.56
2018-05-15T03:27:28.474Z,96.47
2018-05-15T03:28:08.993Z,96.61
2018-05-15T03:28:49.515Z,96.7
2018-05-15T03:29:30.030Z,97.52
2018-05-15T03:30:10.545Z,97.61
2018-05-15T03:30:51.057Z,97.24
2018-05-15T03:31:31.594Z,97.33
2018-05-15T03:32:12.123Z,97.09
2018-05-15T03:32:52.641Z,97.47
2018-05-15T03:33:33.164Z,97.14
2018-05-15T03:34:13.673Z,96.75
2018-05-15T03:34:54.201Z,96.94
2018-05-15T03:35:34.728Z,97.71
2018-05-15T03:36:15.267Z,98
2018-05-15T03:36:55.796Z,97.33
2018-05-15T03:37:36.322Z,97.81
2018-05-15T03:38:16.848Z,98
2018-05-15T03:38:57.362Z,97.04
2018-05-15T03:39:37.874Z,97.33
2018-05-15T03:40:18.393Z,97.33
2018-05-15T03:40:58.919Z,97.71
2018-05-15T03:41:39.435Z,97.71
2018-05-15T03:42:19.958Z,97.61
2018-05-15T03:43:00.482Z,97.42
2018-05-15T03:43:40.995Z,97.24
2018-05-15T03:44:21.508Z,96.75
2018-05-15T03:45:02.028Z,96.85
2018-05-15T03:45:42.540Z,96.75
2018-05-15T03:46:23.065Z,96.94
2018-05-15T03:47:03.591Z,96.66
2018-05-15T03:47:44.102Z,97.24
2018-05-15T03:48:24.623Z,96.66
2018-05-15T03:49:05.141Z,96.56
2018-05-15T03:49:45.658Z,96.56
2018-05-15T03:50:26.180Z,96.18
2018-05-15T03:51:06.705Z,96.56
2018-05-15T03:51:47.227Z,96.47
2018-05-15T03:52:27.735Z,96.18
2018-05-15T03:53:08.253Z,95.6
2018-05-15T03:53:48.772Z,95.7
2018-05-15T03:54:29.286Z,95.7
2018-05-15T03:55:09.805Z,96.47
2018-05-15T03:55:50.343Z,96.47
2018-05-15T03:56:30.865Z,96.47
2018-05-15T03:57:11.388Z,96.47
2018-05-15T03:57:51.906Z,96.37
2018-05-15T03:58:32.419Z,96.66
2018-05-15T03:59:12.989Z,96.18
2018-05-15T03:59:53.495Z,96.37
2018-05-15T04:00:34.020Z,96.42
2018-05-15T04:01:14.556Z,96.85
2018-05-15T04:01:55.071Z,96.94
2018-05-15T04:02:35.577Z,96.66
2018-05-15T04:03:16.090Z,96.66
2018-05-15T04:03:56.605Z,96.66
2018-05-15T04:04:37.130Z,96.75
2018-05-15T04:05:17.642Z,96.66
2018-05-15T04:05:58.163Z,97.33
2018-05-15T04:06:38.676Z,97.42
2018-05-15T04:07:19.206Z,97.24
2018-05-15T04:07:59.719Z,96.94
2018-05-15T04:08:40.325Z,97.42
2018-05-15T04:09:20.755Z,97.33
2018-05-15T04:10:01.271Z,97.24
2018-05-15T04:10:41.794Z,96.66
2018-05-15T04:11:22.313Z,96.75
2018-05-15T04:12:02.829Z,96.66
2018-05-15T04:12:43.361Z,96.56
2018-05-15T04:13:23.874Z,96.66
2018-05-15T04:14:04.391Z,96.66
2018-05-15T04:14:44.911Z,96.56
2018-05-15T04:15:25.428Z,96.37
2018-05-15T04:16:05.939Z,96.56
2018-05-15T04:16:46.447Z,96.56
2018-05-15T04:17:26.954Z,95.7
2018-05-15T04:18:07.472Z,95.6
2018-05-15T04:18:47.993Z,95.7
2018-05-15T04:19:28.514Z,95.7
2018-05-15T04:20:09.035Z,95.7
2018-05-15T04:20:49.555Z,95.41
2018-05-15T04:21:30.082Z,95.12
2018-05-15T04:22:10.598Z,95.45
2018-05-15T04:22:51.118Z,95.21
2018-05-15T04:23:31.642Z,95.41
2018-05-15T04:24:12.171Z,95.89
2018-05-15T04:24:52.693Z,95.75
2018-05-15T04:25:33.207Z,95.45
2018-05-15T04:26:13.721Z,95.89
2018-05-15T04:26:54.232Z,95.7
2018-05-15T04:27:34.748Z,95.89
2018-05-15T04:28:15.375Z,95.55
2018-05-15T04:28:55.783Z,94.83
2018-05-15T04:29:36.307Z,95.03
2018-05-15T04:30:16.840Z,95.12
2018-05-15T04:30:57.347Z,95.03
2018-05-15T04:31:37.873Z,95.5
2018-05-15T04:32:18.377Z,94.74
2018-05-15T04:32:58.896Z,95.17
2018-05-15T04:33:39.433Z,95.31
2018-05-15T04:34:19.960Z,95.03
2018-05-15T04:35:00.589Z,95.21
2018-05-15T04:35:40.982Z,94.35
2018-05-15T04:36:21.498Z,94.54
2018-05-15T04:37:02.051Z,94.59
2018-05-15T04:37:42.562Z,94.45
2018-05-15T04:38:23.016Z,94.45
2018-05-15T04:39:03.498Z,94.64
2018-05-15T04:39:44.008Z,95.41
2018-05-15T04:40:24.530Z,94.93
2018-05-15T04:41:05.041Z,94.74
2018-05-15T04:41:45.562Z,95.21
2018-05-15T04:42:26.096Z,95.07
2018-05-15T04:43:06.611Z,95.17
2018-05-15T04:43:47.296Z,95.26
2018-05-15T04:44:27.683Z,94.69
2018-05-15T04:45:08.202Z,94.69
2018-05-15T04:45:48.714Z,94.59
2018-05-15T04:46:29.228Z,94.88
2018-05-15T04:47:09.741Z,94.88
2018-05-15T04:47:50.260Z,94.49
2018-05-15T04:48:30.770Z,95.36
2018-05-15T04:49:11.369Z,95.45
2018-05-15T04:49:51.798Z,94.59
2018-05-15T04:50:32.318Z,94.78
2018-05-15T04:51:12.902Z,94.69
2018-05-15T04:51:53.378Z,94.69
2018-05-15T04:52:33.898Z,94.78
2018-05-15T04:53:14.413Z,94.88
2018-05-15T04:53:54.931Z,94.11
2018-05-15T04:54:35.452Z,93.63
2018-05-15T04:55:15.953Z,93.92
2018-05-15T04:55:56.496Z,93.25
2018-05-15T04:56:37.009Z,93.15
2018-05-15T04:57:17.544Z,93.34
2018-05-15T04:57:58.076Z,93.15
2018-05-15T04:58:38.567Z,92.86
2018-05-15T04:59:19.089Z,93.05
2018-05-15T04:59:59.622Z,93.05
2018-05-15T05:00:40.122Z,93.25
2018-05-15T05:01:20.654Z,92.91
2018-05-15T05:02:01.258Z,92.43
2018-05-15T05:02:41.691Z,92.52
2018-05-15T05:03:22.223Z,92.33
2018-05-15T05:04:02.733Z,92.24
2018-05-15T05:04:43.229Z,92.52
2018-05-15T05:05:23.753Z,92.62
2018-05-15T05:06:04.278Z,92.43
2018-05-15T05:06:44.803Z,92.05
2018-05-15T05:07:25.311Z,91.95
2018-05-15T05:08:05.842Z,91.47
2018-05-15T05:08:46.365Z,91.18
2018-05-15T05:09:26.885Z,90.8
2018-05-15T05:10:07.404Z,90.45
2018-05-15T05:10:47.916Z,89.78
2018-05-15T05:11:28.446Z,89.59
2018-05-15T05:12:08.972Z,89.11
2018-05-15T05:12:49.603Z,88.63
2018-05-15T05:13:30.042Z,88.53
2018-05-15T05:14:10.556Z,88.53
2018-05-15T05:14:51.065Z,88.63
2018-05-15T05:15:31.586Z,88.39
2018-05-15T05:16:12.084Z,90.17
2018-05-15T05:16:52.615Z,91.13
2018-05-15T05:17:33.132Z,92.67
2018-05-15T05:18:13.681Z,94.4
2018-05-15T05:18:54.209Z,95.17
2018-05-15T05:19:34.737Z,94.68
2018-05-15T05:20:15.251Z,95.36
2018-05-15T05:20:55.861Z,95.55
2018-05-15T05:21:36.308Z,95.07
2018-05-15T05:22:16.822Z,94.4
2018-05-15T05:22:57.340Z,93.34
2018-05-15T05:23:37.855Z,91.8
2018-05-15T05:24:18.400Z,91.42
2018-05-15T05:24:58.900Z,93.15
2018-05-15T05:25:39.410Z,93.73
2018-05-15T05:26:19.935Z,93.15
2018-05-15T05:27:00.458Z,91.99
2018-05-15T05:27:40.979Z,94.59
2018-05-15T05:28:21.512Z,95.55
2018-05-15T05:29:02.034Z,94.11
2018-05-15T05:29:42.604Z,93.58
2018-05-15T05:30:23.398Z,90.45
2018-05-15T05:31:03.927Z,88.96
2018-05-15T05:31:44.490Z,92.71
2018-05-15T05:32:24.973Z,93.58
2018-05-15T05:33:05.490Z,92.43
2018-05-15T05:33:46.037Z,90.98
2018-05-15T05:34:26.549Z,91.46
2018-05-15T05:35:07.383Z,90.73
2018-05-15T05:35:47.680Z,90.06
2018-05-15T05:36:28.205Z,88.81
2018-05-15T05:37:08.738Z,87.18
2018-05-15T05:37:49.262Z,86.22
2018-05-15T05:38:29.789Z,91.22
2018-05-15T05:39:10.303Z,90.26
2018-05-15T05:39:50.822Z,89.01
2018-05-15T05:40:31.341Z,90.83
2018-05-15T05:41:11.909Z,89.58
2018-05-15T05:41:52.433Z,86.69
2018-05-15T05:42:32.959Z,86.12
2018-05-15T05:43:13.495Z,84.77
2018-05-15T05:43:54.018Z,85.58
2018-05-15T05:44:34.544Z,85.78
2018-05-15T05:45:15.117Z,85.3
2018-05-15T05:45:55.741Z,85.49
2018-05-15T05:46:36.263Z,86.07
2018-05-15T05:47:16.789Z,85.24
2018-05-15T05:47:57.321Z,83.51
2018-05-15T05:48:37.844Z,83.37
2018-05-15T05:49:18.369Z,85.3
2018-05-15T05:49:58.905Z,84.81
2018-05-15T05:50:39.433Z,84.23
2018-05-15T05:51:19.955Z,83.66
2018-05-15T05:52:00.529Z,82.79
2018-05-15T05:52:41.013Z,83.95
2018-05-15T05:53:21.523Z,85.34
2018-05-15T05:54:02.051Z,84.95
2018-05-15T05:54:42.570Z,83.41
2018-05-15T05:55:23.101Z,82.01
2018-05-15T05:56:03.620Z,81.62
2018-05-15T05:56:44.141Z,81.72
2018-05-15T05:57:24.678Z,81.91
2018-05-15T05:58:05.204Z,81.43
2018-05-15T05:58:45.720Z,81.47
2018-05-15T05:59:26.250Z,81.18
2018-05-15T06:00:06.777Z,80.22
2018-05-15T06:00:47.305Z,81.27
2018-05-15T06:01:27.837Z,85.91
2018-05-15T06:02:08.362Z,83.74
2018-05-15T06:02:48.886Z,85.09
2018-05-15T06:03:29.403Z,83.74
2018-05-15T06:04:09.920Z,82.2
2018-05-15T06:04:50.434Z,82.43
2018-05-15T06:05:30.955Z,86.82
2018-05-15T06:06:11.507Z,88.85
2018-05-15T06:06:52.049Z,90.88
2018-05-15T06:07:32.579Z,85.86
2018-05-15T06:08:13.306Z,82.68
2018-05-15T06:08:53.820Z,81.62
2018-05-15T06:09:34.345Z,85.09
2018-05-15T06:10:14.855Z,85.38
2018-05-15T06:10:55.377Z,87.3
2018-05-15T06:11:35.912Z,93.09
2018-05-15T06:12:16.463Z,89.72
2018-05-15T06:12:57.000Z,90.88
2018-05-15T06:13:37.515Z,90.05
2018-05-15T06:14:18.047Z,87.54
2018-05-15T06:14:58.571Z,86.87
2018-05-15T06:15:39.083Z,83.78
2018-05-15T06:16:19.623Z,83.69
2018-05-15T06:17:00.122Z,81.85
2018-05-15T06:17:40.659Z,83.3
2018-05-15T06:18:21.169Z,81.32
2018-05-15T06:19:01.707Z,80.89
2018-05-15T06:19:42.242Z,83.63
2018-05-15T06:20:22.772Z,88.55
2018-05-15T06:21:03.380Z,92.5
2018-05-15T06:21:43.851Z,95.54
2018-05-15T06:22:24.372Z,95.93
2018-05-15T06:23:04.898Z,95.26
2018-05-15T06:23:45.439Z,96.03
2018-05-15T06:24:26.121Z,87.98
2018-05-15T06:25:06.652Z,83.84
2018-05-15T06:25:47.182Z,86.92
2018-05-15T06:26:27.715Z,90.88
2018-05-15T06:27:08.234Z,89.04
2018-05-15T06:27:48.757Z,90.39
2018-05-15T06:28:29.278Z,86.25
2018-05-15T06:29:09.904Z,83.36
2018-05-15T06:29:50.689Z,87.54
2018-05-15T06:30:31.184Z,89.09
2018-05-15T06:31:11.707Z,90.92
2018-05-15T06:31:52.223Z,88.08
2018-05-15T06:32:32.775Z,85.96
2018-05-15T06:33:13.551Z,87.26
2018-05-15T06:33:54.064Z,90.88
2018-05-15T06:34:34.577Z,89.81
2018-05-15T06:35:15.072Z,88.56
2018-05-15T06:35:55.668Z,84.03
2018-05-15T06:36:36.095Z,82.2
2018-05-15T06:37:16.625Z,82.97
2018-05-15T06:37:57.129Z,82.2
2018-05-15T06:38:37.701Z,83.55
2018-05-15T06:39:18.113Z,84.86
2018-05-15T06:39:58.705Z,82.87
2018-05-15T06:40:39.243Z,85.77
2018-05-15T06:41:19.765Z,85.38
2018-05-15T06:42:00.277Z,85.72
2018-05-15T06:42:40.810Z,86.11
2018-05-15T06:43:21.336Z,83.8
2018-05-15T06:44:01.892Z,84.42
2018-05-15T06:44:42.437Z,83.94
2018-05-15T06:45:22.943Z,84.12
2018-05-15T06:46:03.460Z,82.43
2018-05-15T06:46:43.973Z,81.37
2018-05-15T06:47:24.501Z,80.02
2018-05-15T06:48:05.020Z,79.97
2018-05-15T06:48:45.546Z,80.45
2018-05-15T06:49:26.067Z,81.47
2018-05-15T06:50:06.644Z,83.88
2018-05-15T06:50:47.160Z,84.42
2018-05-15T06:51:27.697Z,82.72
2018-05-15T06:52:08.235Z,85.91
2018-05-15T06:52:48.759Z,86.19
2018-05-15T06:53:29.350Z,82.53
2018-05-15T06:54:09.822Z,84.36
2018-05-15T06:54:50.340Z,82.14
2018-05-15T06:55:30.855Z,81.27
2018-05-15T06:56:11.402Z,80.02
2018-05-15T06:56:51.920Z,85.42
2018-05-15T06:57:32.461Z,84.46
2018-05-15T06:58:12.979Z,80.56
2018-05-15T06:58:53.523Z,78.54
2018-05-15T06:59:34.081Z,84.99
2018-05-15T07:00:14.607Z,90.1
2018-05-15T07:00:55.123Z,87.6
2018-05-15T07:01:35.722Z,83.94
2018-05-15T07:02:16.198Z,81.52
2018-05-15T07:02:56.714Z,79.21
2018-05-15T07:03:37.235Z,80.79
2018-05-15T07:04:17.759Z,86.19
2018-05-15T07:04:58.271Z,86.48
2018-05-15T07:05:38.815Z,86.24
2018-05-15T07:06:19.327Z,80.54
2018-05-15T07:06:59.875Z,83.44
2018-05-15T07:07:40.451Z,87.4
2018-05-15T07:08:20.920Z,81.8
2018-05-15T07:09:02.027Z,80.3
2018-05-15T07:09:42.570Z,83.58
2018-05-15T07:10:23.101Z,82.03
2018-05-15T07:11:03.657Z,86.47
2018-05-15T07:11:45.024Z,88.4
2018-05-15T07:12:25.539Z,82.71
2018-05-15T07:13:06.047Z,81.84
2018-05-15T07:13:46.557Z,81.55
2018-05-15T07:28:52.004Z,74.69
2018-05-15T07:29:32.463Z,76.72
2018-05-15T07:30:12.994Z,75.76
2018-05-15T07:30:53.507Z,73.73
2018-05-15T07:31:34.020Z,73.44
2018-05-15T07:32:14.552Z,73.35
2018-05-15T07:32:55.782Z,77.01
2018-05-15T07:33:36.318Z,77.59
2018-05-15T07:34:16.826Z,76.82
2018-05-15T07:34:58.092Z,78.08
2018-05-15T07:35:38.605Z,74.31
2018-05-15T07:36:19.137Z,73.54
2018-05-15T07:36:59.671Z,78.75
2018-05-15T07:37:40.806Z,77.07
2018-05-15T07:38:21.323Z,77.17
2018-05-15T07:39:01.857Z,76.2
2018-05-15T07:39:42.383Z,75.43
2018-05-15T07:40:23.880Z,75.43
2018-05-15T07:41:05.196Z,74.66
2018-05-15T07:41:45.745Z,75.05
2018-05-15T07:42:26.276Z,73.66
2018-05-15T07:43:06.800Z,74.05
2018-05-15T07:43:47.951Z,73.57
2018-05-15T07:44:29.431Z,74.33
2018-05-15T07:45:09.016Z,80.22
2018-05-15T07:45:49.531Z,78.09
2018-05-15T07:46:30.052Z,75.45
2018-05-15T07:47:10.570Z,73.18
2018-05-15T07:47:51.106Z,73.75
2018-05-15T07:48:31.619Z,74.05
2018-05-15T07:49:12.156Z,79.06
2018-05-15T07:49:52.710Z,75.68
2018-05-15T07:50:33.431Z,81.43
2018-05-15T07:51:28.670Z,78.34
2018-05-15T07:52:09.224Z,79.16
2018-05-15T07:52:49.769Z,78.29
2018-05-15T07:53:30.322Z,76.71
2018-05-15T07:54:10.888Z,73.95
2018-05-15T07:54:51.413Z,72.56
2018-05-15T07:55:31.933Z,74.43
2018-05-15T07:56:12.446Z,73.33
2018-05-15T07:56:52.985Z,75.49
2018-05-15T07:57:33.533Z,81.95
2018-05-15T07:58:14.113Z,79.89
2018-05-15T07:58:55.110Z,83.45
2018-05-15T07:59:35.642Z,76.23
2018-05-15T08:00:16.157Z,74.68
2018-05-15T08:00:56.666Z,75.07
2018-05-15T08:01:37.940Z,76.55
2018-05-15T08:02:18.596Z,73.43
2018-05-15T08:03:01.644Z,73.72
2018-05-15T08:03:43.527Z,82.29
2018-05-15T08:04:25.022Z,80.27
2018-05-15T08:05:06.917Z,80.76
2018-05-15T08:05:49.678Z,81.81
2018-05-15T08:06:33.627Z,86.54
2018-05-15T08:07:14.035Z,86.39
2018-05-15T08:07:55.035Z,85.52
2018-05-15T08:08:36.513Z,85.38
2018-05-15T08:09:17.521Z,84.52
2018-05-15T08:09:59.801Z,83.94
2018-05-15T08:10:41.829Z,85.71
2018-05-15T08:12:05.321Z,83.64
2018-05-15T08:12:46.365Z,86.05
2018-05-15T08:13:27.592Z,86.25
2018-05-15T08:14:09.839Z,82.2
2018-05-15T08:15:20.527Z,77.67
2018-05-15T08:16:03.844Z,76.13
2018-05-15T08:16:44.867Z,77.67
2018-05-15T08:17:25.840Z,78.15
2018-05-15T08:18:06.348Z,83.07
2018-05-15T08:18:46.860Z,78.92
2018-05-15T08:19:27.435Z,82.29
2018-05-15T08:20:07.961Z,78.73
2018-05-15T08:20:48.484Z,80.62
2018-05-15T08:21:29.017Z,82.29
2018-05-15T08:22:09.525Z,81.81
2018-05-15T08:22:50.042Z,79.79
2018-05-15T08:23:30.574Z,79.98
2018-05-15T08:24:11.229Z,78.15
2018-05-15T08:24:51.748Z,76.9
2018-05-15T08:25:32.247Z,74.01
2018-05-15T08:26:12.776Z,74.4
2018-05-15T08:26:53.283Z,75.26
2018-05-15T08:27:33.815Z,73.2
2018-05-15T08:28:14.364Z,73.2
2018-05-15T08:28:54.896Z,74.58
2018-05-15T08:29:35.417Z,77.92
2018-05-15T08:30:15.940Z,76.18
2018-05-15T08:41:46.813Z,73.14
2018-05-15T08:42:27.333Z,76.9
2018-05-15T08:43:07.853Z,79.11
2018-05-15T08:43:48.370Z,81.81
2018-05-15T08:44:28.910Z,78.44
2018-05-15T08:45:09.434Z,78.83
2018-05-15T08:45:49.946Z,79.69
2018-05-15T08:46:30.470Z,79.6
2018-05-15T08:47:10.971Z,85.38
2018-05-15T08:47:51.577Z,86.1
2018-05-15T08:48:32.119Z,85.52
2018-05-15T08:49:12.991Z,87.3
2018-05-15T08:49:53.309Z,83.36
2018-05-15T08:50:33.839Z,79.11
2018-05-15T08:51:14.373Z,81.43
2018-05-15T08:51:54.901Z,79.6
2018-05-15T08:52:35.447Z,81.96
2018-05-15T08:53:15.981Z,82.2
2018-05-15T08:53:56.502Z,80.33
2018-05-15T08:54:37.098Z,80.04
2018-05-15T08:55:17.565Z,81.39
2018-05-15T08:57:30.389Z,79.94
2018-05-15T08:58:10.867Z,79.79
2018-05-15T08:58:51.385Z,79.6
2018-05-15T08:59:31.899Z,81.72
2018-05-15T09:00:12.411Z,82.2
2018-05-15T09:00:52.952Z,77.96
2018-05-15T09:01:33.490Z,75.65
2018-05-15T09:02:14.053Z,73.91
2018-05-15T09:02:54.554Z,73.05
2018-05-15T09:03:35.087Z,72.47
2018-05-15T09:04:15.606Z,75.36
2018-05-15T09:04:56.124Z,75.45
2018-05-15T09:05:36.710Z,73.43
2018-05-15T09:06:17.237Z,72.95
2018-05-15T09:06:57.767Z,77
2018-05-15T09:07:38.285Z,73.05
2018-05-15T09:08:18.802Z,72.05
2018-05-15T09:08:59.318Z,71.37
2018-05-15T09:09:39.837Z,77.19
2018-05-15T09:10:20.365Z,78.79
2018-05-15T09:11:00.884Z,80.23
2018-05-15T09:11:41.404Z,81.48
2018-05-15T09:12:21.917Z,80.71
2018-05-15T09:13:02.442Z,75.51